Terminal Aerodrome Forecast
Issued by NWS Grand Junction, CO

Home | Current Version | Previous Version | Text Only | Print | Product List | Glossary On
Versions: 1 2 3 4 5 6 7 8 9 10 11 12
000
FTUS45 KGJT 252325
TAFGJT
TAF
KGJT 252325Z 2600/2624 28008KT P6SM SCT250
     FM260200 06004KT P6SM SCT250
     FM260500 12012KT P6SM BKN150
     FM261900 26012G20KT P6SM BKN120 BKN200=

USA.gov is the U.S. government's official web portal to all federal, state and local government web resources and services.